createdAt,value
2023-08-09T00:00:00.603Z,14.82
2023-08-09T00:01:00.616Z,14.89
2023-08-09T00:02:00.569Z,14.91
2023-08-09T00:03:00.598Z,14.84
2023-08-09T00:04:00.653Z,14.86
2023-08-09T00:05:00.591Z,14.94
2023-08-09T00:06:00.580Z,14.89
2023-08-09T00:07:00.878Z,14.81
2023-08-09T00:08:00.536Z,14.81
2023-08-09T00:09:00.520Z,14.94
2023-08-09T00:10:00.556Z,14.69
2023-08-09T00:11:00.500Z,14.91
2023-08-09T00:12:00.502Z,14.73
2023-08-09T00:13:00.498Z,14.88
2023-08-09T00:14:00.478Z,14.82
2023-08-09T00:15:00.487Z,14.89
2023-08-09T00:16:01.532Z,14.91
2023-08-09T00:17:00.762Z,14.88
2023-08-09T00:18:00.524Z,14.84
2023-08-09T00:19:00.470Z,14.70
2023-08-09T00:20:00.460Z,14.85
2023-08-09T00:21:00.424Z,14.69
2023-08-09T00:22:00.415Z,14.84
2023-08-09T00:23:00.421Z,14.69
2023-08-09T00:24:00.417Z,14.82
2023-08-09T00:25:00.398Z,14.72
2023-08-09T00:26:00.385Z,14.78
2023-08-09T00:27:00.496Z,14.84
2023-08-09T00:28:00.396Z,14.77
2023-08-09T00:29:00.393Z,14.81
2023-08-09T00:30:00.358Z,14.69
2023-08-09T00:31:00.344Z,14.68
2023-08-09T00:32:00.367Z,14.70
2023-08-09T00:33:00.391Z,14.77
2023-08-09T00:34:00.353Z,14.81
2023-08-09T00:35:00.335Z,14.73
2023-08-09T00:36:00.312Z,14.72
2023-08-09T00:37:00.522Z,14.78
2023-08-09T00:38:00.322Z,14.82
2023-08-09T00:39:00.286Z,14.72
2023-08-09T00:40:00.276Z,14.77
2023-08-09T00:41:00.265Z,14.72
2023-08-09T00:42:00.275Z,14.82
2023-08-09T00:43:00.274Z,14.69
2023-08-09T00:44:00.249Z,14.72
2023-08-09T00:45:00.237Z,14.88
2023-08-09T00:46:00.265Z,14.77
2023-08-09T00:47:00.579Z,14.82
2023-08-09T00:48:00.295Z,14.72
2023-08-09T00:49:00.205Z,14.84
2023-08-09T00:50:00.204Z,14.82
2023-08-09T00:51:00.206Z,14.77
2023-08-09T00:52:00.209Z,14.78
2023-08-09T00:53:00.205Z,14.86
2023-08-09T00:54:00.183Z,14.78
2023-08-09T00:55:00.242Z,14.72
2023-08-09T00:56:00.153Z,14.77
2023-08-09T00:57:00.471Z,14.79
2023-08-09T00:58:00.138Z,14.82
2023-08-09T00:59:00.219Z,14.82
2023-08-09T01:00:01.157Z,14.78
2023-08-09T01:01:00.153Z,14.84
2023-08-09T01:02:00.143Z,14.72
2023-08-09T01:03:00.185Z,14.78
2023-08-09T01:04:00.101Z,14.81
2023-08-09T01:05:00.112Z,14.77
2023-08-09T01:06:00.105Z,14.77
2023-08-09T01:07:00.437Z,14.66
2023-08-09T01:08:00.056Z,14.68
2023-08-09T01:09:00.052Z,14.77
2023-08-09T01:10:00.128Z,14.81
2023-08-09T01:11:00.061Z,14.68
2023-08-09T01:12:00.057Z,14.72
2023-08-09T01:13:00.017Z,14.73
2023-08-09T01:14:00.009Z,14.82
2023-08-09T01:14:59.995Z,14.81
2023-08-09T01:16:01.076Z,14.73
2023-08-09T01:17:00.514Z,14.81
2023-08-09T01:18:00.008Z,14.70
2023-08-09T01:18:59.971Z,14.79
2023-08-09T01:19:59.955Z,14.70
2023-08-09T01:20:59.980Z,14.77
2023-08-09T01:21:59.941Z,14.78
2023-08-09T01:22:59.941Z,14.79
2023-08-09T01:23:59.935Z,14.73
2023-08-09T01:24:59.985Z,14.77
2023-08-09T01:25:59.941Z,14.77
2023-08-09T01:27:00.329Z,14.69
2023-08-09T01:27:59.906Z,14.81
2023-08-09T01:28:59.889Z,14.66
2023-08-09T01:29:59.928Z,14.81
2023-08-09T01:30:59.908Z,14.81
2023-08-09T01:31:59.877Z,14.73
2023-08-09T01:32:59.924Z,14.81
2023-08-09T01:33:59.906Z,14.73
2023-08-09T01:34:59.880Z,14.81
2023-08-09T01:35:59.838Z,14.82
2023-08-09T01:37:00.063Z,14.70
2023-08-09T01:37:59.820Z,14.82
2023-08-09T01:38:59.824Z,14.77
2023-08-09T01:39:59.829Z,14.79
2023-08-09T01:40:59.817Z,14.79
2023-08-09T01:41:59.792Z,14.69
2023-08-09T01:42:59.794Z,14.82
2023-08-09T01:43:59.800Z,14.79
2023-08-09T01:44:59.787Z,14.81
2023-08-09T01:45:59.782Z,14.82
2023-08-09T01:47:00.006Z,14.84
2023-08-09T01:47:59.791Z,14.82
2023-08-09T01:48:59.751Z,14.81
2023-08-09T01:49:59.984Z,14.78
2023-08-09T01:50:59.708Z,14.84
2023-08-09T01:51:59.715Z,14.82
2023-08-09T01:52:59.779Z,14.79
2023-08-09T01:53:59.756Z,14.73
2023-08-09T01:54:59.687Z,14.82
2023-08-09T01:55:59.681Z,14.81
2023-08-09T01:57:00.027Z,14.81
2023-08-09T01:57:59.663Z,14.84
2023-08-09T01:58:59.686Z,14.85
2023-08-09T01:59:59.643Z,14.84
2023-08-09T02:00:59.677Z,14.77
2023-08-09T02:01:59.681Z,14.88
2023-08-09T02:02:59.681Z,14.88
2023-08-09T02:03:59.652Z,14.72
2023-08-09T02:04:59.610Z,14.85
2023-08-09T02:05:59.607Z,14.89
2023-08-09T02:06:59.849Z,14.85
2023-08-09T02:07:59.622Z,14.73
2023-08-09T02:08:59.591Z,14.88
2023-08-09T02:09:59.585Z,14.86
2023-08-09T02:10:59.570Z,14.84
2023-08-09T02:11:59.558Z,14.85
2023-08-09T02:12:59.603Z,14.84
2023-08-09T02:13:59.543Z,14.78
2023-08-09T02:14:59.539Z,14.86
2023-08-09T02:15:59.528Z,14.86
2023-08-09T02:17:00.198Z,14.94
2023-08-09T02:17:59.632Z,14.89
2023-08-09T02:18:59.509Z,14.92
2023-08-09T02:19:59.496Z,14.85
2023-08-09T02:20:59.485Z,14.96
2023-08-09T02:21:59.506Z,14.86
2023-08-09T02:22:59.479Z,14.97
2023-08-09T02:23:59.472Z,14.92
2023-08-09T02:24:59.460Z,14.86
2023-08-09T02:25:59.447Z,14.92
2023-08-09T02:26:59.736Z,14.97
2023-08-09T02:27:59.429Z,14.97
2023-08-09T02:28:59.423Z,14.96
2023-08-09T02:29:59.423Z,14.97
2023-08-09T02:30:59.440Z,14.91
2023-08-09T02:31:59.431Z,14.86
2023-08-09T02:32:59.454Z,14.88
2023-08-09T02:33:59.396Z,14.89
2023-08-09T02:34:59.371Z,14.97
2023-08-09T02:35:59.420Z,14.88
2023-08-09T02:36:59.643Z,14.89
2023-08-09T02:37:59.366Z,14.91
2023-08-09T02:38:59.358Z,14.94
2023-08-09T02:39:59.343Z,14.86
2023-08-09T02:40:59.361Z,14.92
2023-08-09T02:41:59.330Z,14.82
2023-08-09T02:42:59.347Z,14.89
2023-08-09T02:43:59.311Z,14.92
2023-08-09T02:44:59.308Z,15.02
2023-08-09T02:45:59.376Z,14.91
2023-08-09T02:46:59.540Z,14.97
2023-08-09T02:47:59.321Z,14.91
2023-08-09T02:48:59.271Z,15.07
2023-08-09T02:49:59.260Z,14.99
2023-08-09T02:50:59.280Z,15.03
2023-08-09T02:51:59.242Z,15.03
2023-08-09T02:52:59.235Z,15.02
2023-08-09T02:53:59.226Z,15.04
2023-08-09T02:54:59.251Z,15.03
2023-08-09T02:55:59.241Z,15.06
2023-08-09T02:56:59.330Z,15.07
2023-08-09T02:57:59.197Z,15.07
2023-08-09T02:58:59.197Z,15.06
2023-08-09T02:59:59.207Z,15.17
2023-08-09T03:00:59.173Z,15.04
2023-08-09T03:01:59.218Z,15.17
2023-08-09T03:02:59.213Z,15.18
2023-08-09T03:03:59.204Z,15.04
2023-08-09T03:04:59.167Z,15.15
2023-08-09T03:05:59.135Z,15.15
2023-08-09T03:06:59.463Z,15.17
2023-08-09T03:07:59.117Z,15.17
2023-08-09T03:08:59.109Z,15.18
2023-08-09T03:09:59.133Z,15.18
2023-08-09T03:10:59.092Z,15.22
2023-08-09T03:11:59.082Z,15.28
2023-08-09T03:12:59.073Z,15.22
2023-08-09T03:13:59.060Z,15.21
2023-08-09T03:14:59.085Z,15.21
2023-08-09T03:15:59.073Z,15.27
2023-08-09T03:16:59.030Z,15.24
2023-08-09T03:18:00.092Z,15.24
2023-08-09T03:18:59.023Z,15.37
2023-08-09T03:19:59.040Z,15.31
2023-08-09T03:20:59.011Z,15.31
2023-08-09T03:21:59.019Z,15.36
2023-08-09T03:22:58.999Z,15.43
2023-08-09T03:23:59.021Z,15.28
2023-08-09T03:24:59.014Z,15.33
2023-08-09T03:25:58.985Z,15.29
2023-08-09T03:26:59.004Z,15.17
2023-08-09T03:27:58.960Z,14.92
2023-08-09T03:28:58.980Z,14.79
2023-08-09T03:29:58.948Z,14.69
2023-08-09T03:30:58.939Z,14.77
2023-08-09T03:31:58.956Z,14.68
2023-08-09T03:32:58.948Z,14.70
2023-08-09T03:33:58.952Z,14.60
2023-08-09T03:34:58.914Z,14.58
2023-08-09T03:35:58.897Z,14.65
2023-08-09T03:36:58.983Z,14.63
2023-08-09T03:37:58.911Z,14.66
2023-08-09T03:38:59.920Z,14.79
2023-08-09T03:39:58.862Z,14.70
2023-08-09T03:40:58.864Z,14.63
2023-08-09T03:41:58.857Z,14.58
2023-08-09T03:42:58.902Z,14.63
2023-08-09T03:43:58.833Z,14.62
2023-08-09T03:44:58.825Z,14.62
2023-08-09T03:45:58.853Z,14.59
2023-08-09T03:46:58.826Z,14.73
2023-08-09T03:47:58.847Z,14.73
2023-08-09T03:48:58.802Z,14.77
2023-08-09T03:49:58.784Z,14.86
2023-08-09T03:50:58.805Z,14.78
2023-08-09T03:51:58.782Z,14.81
2023-08-09T03:52:58.807Z,14.77
2023-08-09T03:53:58.753Z,14.79
2023-08-09T03:54:58.764Z,14.72
2023-08-09T03:55:58.743Z,14.65
2023-08-09T03:56:58.763Z,14.72
2023-08-09T03:57:58.756Z,14.81
2023-08-09T03:58:58.731Z,14.73
2023-08-09T03:59:58.710Z,14.79
2023-08-09T04:00:58.738Z,14.89
2023-08-09T04:01:58.763Z,14.82
2023-08-09T04:02:58.737Z,14.78
2023-08-09T04:03:58.683Z,14.78
2023-08-09T04:04:58.698Z,14.82
2023-08-09T04:05:58.677Z,14.85
2023-08-09T04:06:58.685Z,14.78
2023-08-09T04:07:58.672Z,14.63
2023-08-09T04:08:58.641Z,14.72
2023-08-09T04:09:58.632Z,14.66
2023-08-09T04:10:58.653Z,14.63
2023-08-09T04:11:58.639Z,14.58
2023-08-09T04:12:58.624Z,14.48
2023-08-09T04:13:58.615Z,14.51
2023-08-09T04:14:58.595Z,14.47
2023-08-09T04:15:58.639Z,14.33
2023-08-09T04:16:58.592Z,14.33
2023-08-09T04:17:58.640Z,14.41
2023-08-09T04:18:58.557Z,14.33
2023-08-09T04:19:58.553Z,14.28
2023-08-09T04:20:58.568Z,14.37
2023-08-09T04:21:59.027Z,14.41
2023-08-09T04:22:58.533Z,14.40
2023-08-09T04:23:58.540Z,14.33
2023-08-09T04:24:58.521Z,14.32
2023-08-09T04:25:58.538Z,14.41
2023-08-09T04:26:58.506Z,14.54
2023-08-09T04:27:58.503Z,14.48
2023-08-09T04:28:58.499Z,14.55
2023-08-09T04:29:58.518Z,14.53
2023-08-09T04:30:58.494Z,14.58
2023-08-09T04:31:58.463Z,14.47
2023-08-09T04:32:58.480Z,14.53
2023-08-09T04:33:58.459Z,14.55
2023-08-09T04:34:58.482Z,14.63
2023-08-09T04:35:58.428Z,14.54
2023-08-09T04:36:58.430Z,14.55
2023-08-09T04:37:58.421Z,14.63
2023-08-09T04:38:58.409Z,14.62
2023-08-09T04:39:58.428Z,14.59
2023-08-09T04:40:58.396Z,14.69
2023-08-09T04:41:58.386Z,14.65
2023-08-09T04:42:58.379Z,14.59
2023-08-09T04:43:58.526Z,14.63
2023-08-09T04:44:58.386Z,14.73
2023-08-09T04:45:58.395Z,14.79
2023-08-09T04:46:58.344Z,14.82
2023-08-09T04:47:58.361Z,14.89
2023-08-09T04:48:58.374Z,14.94
2023-08-09T04:49:58.320Z,14.88
2023-08-09T04:50:58.318Z,14.85
2023-08-09T04:51:58.304Z,14.82
2023-08-09T04:52:58.310Z,14.86
2023-08-09T04:53:58.325Z,14.82
2023-08-09T04:54:58.292Z,14.73
2023-08-09T04:55:58.274Z,14.82
2023-08-09T04:56:58.265Z,14.86
2023-08-09T04:57:58.283Z,14.86
2023-08-09T04:58:58.290Z,14.84
2023-08-09T04:59:58.253Z,14.84
2023-08-09T05:00:58.256Z,14.84
2023-08-09T05:01:58.241Z,14.91
2023-08-09T05:02:58.310Z,14.97
2023-08-09T05:03:58.242Z,14.97
2023-08-09T05:04:58.246Z,14.85
2023-08-09T05:05:58.208Z,14.86
2023-08-09T05:06:58.204Z,14.91
2023-08-09T05:07:58.220Z,14.91
2023-08-09T05:08:58.183Z,14.88
2023-08-09T05:09:58.172Z,14.79
2023-08-09T05:10:58.162Z,14.94
2023-08-09T05:11:58.151Z,14.88
2023-08-09T05:12:58.173Z,14.92
2023-08-09T05:13:58.144Z,14.85
2023-08-09T05:14:58.135Z,14.91
2023-08-09T05:15:58.117Z,14.92
2023-08-09T05:16:58.209Z,14.91
2023-08-09T05:17:58.192Z,14.92
2023-08-09T05:18:58.099Z,14.86
2023-08-09T05:19:58.127Z,14.86
2023-08-09T05:20:58.084Z,14.82
2023-08-09T05:21:58.101Z,14.92
2023-08-09T05:22:58.095Z,15.15
2023-08-09T05:23:58.060Z,16.39
2023-08-09T05:24:58.048Z,16.96
2023-08-09T05:25:58.049Z,16.96
2023-08-09T05:26:58.054Z,17.20
2023-08-09T05:27:58.043Z,18.19
2023-08-09T05:28:58.016Z,19.37
2023-08-09T05:29:58.004Z,20.32
2023-08-09T05:30:58.046Z,21.24
2023-08-09T05:31:58.018Z,21.99
2023-08-09T05:32:58.058Z,22.76
2023-08-09T05:33:57.977Z,23.27
2023-08-09T05:34:57.975Z,23.78
2023-08-09T05:35:57.963Z,23.78
2023-08-09T05:36:57.978Z,23.39
2023-08-09T05:37:57.948Z,22.75
2023-08-09T05:38:57.944Z,21.92
2023-08-09T05:39:57.925Z,21.25
2023-08-09T05:40:57.947Z,21.46
2023-08-09T05:41:57.944Z,22.26
2023-08-09T05:42:57.904Z,23.00
2023-08-09T05:43:57.898Z,23.58
2023-08-09T05:44:57.894Z,23.78
2023-08-09T05:45:57.911Z,23.99
2023-08-09T05:46:57.888Z,23.84
2023-08-09T05:47:57.943Z,23.88
2023-08-09T05:48:58.865Z,23.93
2023-08-09T05:49:57.861Z,24.17
2023-08-09T05:50:57.872Z,24.23
2023-08-09T05:51:57.846Z,23.88
2023-08-09T05:52:57.850Z,23.58
2023-08-09T05:53:57.833Z,22.85
2023-08-09T05:54:57.821Z,22.38
2023-08-09T05:55:57.838Z,22.30
2023-08-09T05:56:57.834Z,22.22
2023-08-09T05:57:57.802Z,22.43
2023-08-09T05:59:00.681Z,22.99
2023-08-09T05:59:57.805Z,23.56
2023-08-09T06:00:57.849Z,24.05
2023-08-09T06:01:57.848Z,24.68
2023-08-09T06:02:58.828Z,24.76
2023-08-09T06:03:57.882Z,24.61
2023-08-09T06:04:57.769Z,24.40
2023-08-09T06:05:57.757Z,23.87
2023-08-09T06:06:57.786Z,23.02
2023-08-09T06:07:57.727Z,22.33
2023-08-09T06:08:57.704Z,22.29
2023-08-09T06:09:58.731Z,22.07
2023-08-09T06:10:57.700Z,21.91
2023-08-09T06:11:57.710Z,21.70
2023-08-09T06:12:59.886Z,21.69
2023-08-09T06:13:57.680Z,21.60
2023-08-09T06:14:57.699Z,22.11
2023-08-09T06:15:57.669Z,22.48
2023-08-09T06:16:57.716Z,22.54
2023-08-09T06:17:57.665Z,23.23
2023-08-09T06:18:57.672Z,23.63
2023-08-09T06:19:57.670Z,23.76
2023-08-09T06:20:57.629Z,23.95
2023-08-09T06:21:57.620Z,24.99
2023-08-09T06:22:57.618Z,25.17
2023-08-09T06:23:57.637Z,25.51
2023-08-09T06:24:57.616Z,25.95
2023-08-09T06:25:58.595Z,26.05
2023-08-09T06:26:57.609Z,25.66
2023-08-09T06:27:57.585Z,26.37
2023-08-09T06:28:57.600Z,27.21
2023-08-09T06:29:57.566Z,27.42
2023-08-09T06:30:57.602Z,27.77
2023-08-09T06:31:58.553Z,28.26
2023-08-09T06:32:57.603Z,28.42
2023-08-09T06:33:57.570Z,28.49
2023-08-09T06:34:57.537Z,28.63
2023-08-09T06:35:57.522Z,28.47
2023-08-09T06:36:57.589Z,28.52
2023-08-09T06:38:09.522Z,28.45
2023-08-09T06:38:59.531Z,29.22
2023-08-09T06:39:57.501Z,28.59
2023-08-09T06:40:57.484Z,28.05
2023-08-09T06:41:57.488Z,28.88
2023-08-09T06:42:57.525Z,29.75
2023-08-09T06:43:57.470Z,29.75
2023-08-09T06:44:57.474Z,29.66
2023-08-09T06:45:57.481Z,28.48
2023-08-09T06:46:57.451Z,28.48
2023-08-09T06:47:57.575Z,28.29
2023-08-09T06:48:57.459Z,27.05
2023-08-09T06:49:57.437Z,26.29
2023-08-09T06:50:57.434Z,25.55
2023-08-09T06:51:57.501Z,24.53
2023-08-09T06:52:57.455Z,24.32
2023-08-09T06:53:57.410Z,23.93
2023-08-09T06:54:58.282Z,24.91
2023-08-09T06:55:57.393Z,25.66
2023-08-09T06:56:57.416Z,25.55
2023-08-09T06:57:57.375Z,25.06
2023-08-09T06:58:57.384Z,24.32
2023-08-09T06:59:57.372Z,23.56
2023-08-09T07:00:57.369Z,22.99
2023-08-09T07:01:57.443Z,22.70
2023-08-09T07:02:57.384Z,23.37
2023-08-09T07:03:57.377Z,23.98
2023-08-09T07:04:57.629Z,25.10
2023-08-09T07:05:57.320Z,26.15
2023-08-09T07:06:57.352Z,26.40
2023-08-09T07:07:58.301Z,25.84
2023-08-09T07:08:57.318Z,26.10
2023-08-09T07:09:57.303Z,26.58
2023-08-09T07:10:57.392Z,27.15
2023-08-09T07:11:57.311Z,27.60
2023-08-09T07:12:57.279Z,27.54
2023-08-09T07:13:57.270Z,28.27
2023-08-09T07:14:57.264Z,28.82
2023-08-09T07:15:57.306Z,29.02
2023-08-09T07:16:57.300Z,29.10
2023-08-09T07:17:57.285Z,29.14
2023-08-09T07:18:59.558Z,29.20
2023-08-09T07:19:58.237Z,29.53
2023-08-09T07:20:57.258Z,29.73
2023-08-09T07:21:57.222Z,29.26
2023-08-09T07:22:57.220Z,28.72
2023-08-09T07:23:58.265Z,28.81
2023-08-09T07:24:58.234Z,29.60
2023-08-09T07:25:57.228Z,29.94
2023-08-09T07:26:57.195Z,29.54
2023-08-09T07:27:57.192Z,28.29
2023-08-09T07:28:57.191Z,27.44
2023-08-09T07:29:57.237Z,26.93
2023-08-09T07:30:57.176Z,27.26
2023-08-09T07:31:57.277Z,26.95
2023-08-09T07:32:57.269Z,25.96
2023-08-09T07:33:57.157Z,25.07
2023-08-09T07:34:57.176Z,24.55
2023-08-09T07:35:57.153Z,23.93
2023-08-09T07:36:57.135Z,23.54
2023-08-09T07:37:57.139Z,23.31
2023-08-09T07:38:57.621Z,23.05
2023-08-09T07:39:57.138Z,22.75
2023-08-09T07:40:58.115Z,22.48
2023-08-09T07:41:57.121Z,22.38
2023-08-09T07:42:57.107Z,22.32
2023-08-09T07:43:57.125Z,22.17
2023-08-09T07:44:57.083Z,22.17
2023-08-09T07:45:57.107Z,22.18
2023-08-09T07:46:57.069Z,22.13
2023-08-09T07:47:57.114Z,21.80
2023-08-09T07:48:57.079Z,21.75
2023-08-09T07:49:57.052Z,21.67
2023-08-09T07:50:57.035Z,21.51
2023-08-09T07:51:57.031Z,21.18
2023-08-09T07:52:57.022Z,20.74
2023-08-09T07:53:57.041Z,20.67
2023-08-09T07:54:58.014Z,20.67
2023-08-09T07:55:57.005Z,20.74
2023-08-09T07:56:57.000Z,20.74
2023-08-09T07:57:57.017Z,21.24
2023-08-09T07:58:57.014Z,22.94
2023-08-09T08:00:03.443Z,24.55
2023-08-09T08:00:57.970Z,25.91
2023-08-09T08:01:56.993Z,26.48
2023-08-09T08:02:57.044Z,26.53
2023-08-09T08:03:57.018Z,25.95
2023-08-09T08:04:56.947Z,25.03
2023-08-09T08:05:56.935Z,25.40
2023-08-09T08:06:56.931Z,26.37
2023-08-09T08:07:56.949Z,27.25
2023-08-09T08:08:56.921Z,26.99
2023-08-09T08:09:56.910Z,26.55
2023-08-09T08:10:56.906Z,25.41
2023-08-09T08:12:00.286Z,24.47
2023-08-09T08:12:56.918Z,25.40
2023-08-09T08:13:56.896Z,26.13
2023-08-09T08:14:56.869Z,26.02
2023-08-09T08:15:56.903Z,26.19
2023-08-09T08:16:56.883Z,26.60
2023-08-09T08:17:56.877Z,26.19
2023-08-09T08:18:56.843Z,25.22
2023-08-09T08:19:59.199Z,24.42
2023-08-09T08:20:56.833Z,23.76
2023-08-09T08:21:56.854Z,23.83
2023-08-09T08:22:56.814Z,23.32
2023-08-09T08:23:56.813Z,23.51
2023-08-09T08:24:56.809Z,23.24
2023-08-09T08:25:56.968Z,23.43
2023-08-09T08:26:56.823Z,23.99
2023-08-09T08:27:56.781Z,24.02
2023-08-09T08:28:56.780Z,24.48
2023-08-09T08:29:56.772Z,25.06
2023-08-09T08:30:56.807Z,25.14
2023-08-09T08:31:56.950Z,25.88
2023-08-09T08:32:56.822Z,26.34
2023-08-09T08:33:56.747Z,25.90
2023-08-09T08:34:56.742Z,25.23
2023-08-09T08:36:08.580Z,24.88
2023-08-09T08:36:58.732Z,24.61
2023-08-09T08:37:56.716Z,24.55
2023-08-09T08:38:56.710Z,24.51
2023-08-09T08:39:56.704Z,24.53
2023-08-09T08:40:56.719Z,24.20
2023-08-09T08:41:56.688Z,23.62
2023-08-09T08:42:56.680Z,23.00
2023-08-09T08:43:56.669Z,22.29
2023-08-09T08:44:56.685Z,22.10
2023-08-09T08:45:56.707Z,22.90
2023-08-09T08:46:56.651Z,24.30
2023-08-09T08:47:56.654Z,25.62
2023-08-09T08:48:56.636Z,26.70
2023-08-09T08:49:56.685Z,27.10
2023-08-09T08:50:56.626Z,27.65
2023-08-09T08:51:56.613Z,28.08
2023-08-09T08:52:56.622Z,28.20
2023-08-09T08:53:56.616Z,28.38
2023-08-09T08:54:56.619Z,28.45
2023-08-09T08:55:56.595Z,27.32
2023-08-09T08:56:56.586Z,26.84
2023-08-09T08:57:56.584Z,26.48
2023-08-09T08:58:56.578Z,27.14
2023-08-09T08:59:56.668Z,27.63
2023-08-09T09:00:56.637Z,28.33
2023-08-09T09:01:56.552Z,28.98
2023-08-09T09:02:56.573Z,29.49
2023-08-09T09:03:56.620Z,29.41
2023-08-09T09:04:56.552Z,28.86
2023-08-09T09:05:56.533Z,28.74
2023-08-09T09:06:56.521Z,28.47
2023-08-09T09:07:56.512Z,28.39
2023-08-09T09:08:56.539Z,28.57
2023-08-09T09:09:56.497Z,28.93
2023-08-09T09:10:56.490Z,28.94
2023-08-09T09:11:56.483Z,28.94
2023-08-09T09:12:56.465Z,29.01
2023-08-09T09:13:57.838Z,29.14
2023-08-09T09:14:56.469Z,28.91
2023-08-09T09:15:56.486Z,28.49
2023-08-09T09:16:56.448Z,27.95
2023-08-09T09:17:56.745Z,27.90
2023-08-09T09:18:56.468Z,28.05
2023-08-09T09:19:56.437Z,28.59
2023-08-09T09:20:56.449Z,27.20
2023-08-09T09:21:56.415Z,26.47
2023-08-09T09:22:56.484Z,25.78
2023-08-09T09:23:56.423Z,24.93
2023-08-09T09:24:56.397Z,24.05
2023-08-09T09:25:56.388Z,23.46
2023-08-09T09:26:56.381Z,22.84
2023-08-09T09:27:56.665Z,22.47
2023-08-09T09:28:56.365Z,22.62
2023-08-09T09:29:56.363Z,22.87
2023-08-09T09:30:56.407Z,22.55
2023-08-09T09:31:56.371Z,22.99
2023-08-09T09:32:56.392Z,23.99
2023-08-09T09:33:56.337Z,24.89
2023-08-09T09:34:56.326Z,25.68
2023-08-09T09:35:57.180Z,26.16
2023-08-09T09:36:56.338Z,26.45
2023-08-09T09:37:56.302Z,27.12
2023-08-09T09:38:56.293Z,27.70
2023-08-09T09:39:56.735Z,28.15
2023-08-09T09:40:57.285Z,28.00
2023-08-09T09:41:57.271Z,27.95
2023-08-09T09:42:57.265Z,27.96
2023-08-09T09:43:56.274Z,28.11
2023-08-09T09:44:56.256Z,28.27
2023-08-09T09:45:56.271Z,26.92
2023-08-09T09:46:56.304Z,26.31
2023-08-09T09:47:57.615Z,25.55
2023-08-09T09:48:56.228Z,24.29
2023-08-09T09:49:56.221Z,23.78
2023-08-09T09:50:56.264Z,23.74
2023-08-09T09:51:56.206Z,23.40
2023-08-09T09:52:56.201Z,23.61
2023-08-09T09:53:56.191Z,23.50
2023-08-09T09:54:56.187Z,22.91
2023-08-09T09:55:56.198Z,22.39
2023-08-09T09:56:56.166Z,22.08
2023-08-09T09:57:56.159Z,21.77
2023-08-09T09:58:56.156Z,21.70
2023-08-09T09:59:56.141Z,21.70
2023-08-09T10:00:56.177Z,21.67
2023-08-09T10:01:56.142Z,21.43
2023-08-09T10:02:56.237Z,21.03
2023-08-09T10:03:56.115Z,20.65
2023-08-09T10:04:56.169Z,20.62
2023-08-09T10:05:56.142Z,21.00
2023-08-09T10:06:56.091Z,21.67
2023-08-09T10:07:59.629Z,22.29
2023-08-09T10:08:56.080Z,22.59
2023-08-09T10:09:56.104Z,22.47
2023-08-09T10:10:56.095Z,22.70
2023-08-09T10:11:56.058Z,22.93
2023-08-09T10:12:56.102Z,23.31
2023-08-09T10:13:56.053Z,23.92
2023-08-09T10:14:56.065Z,24.24
2023-08-09T10:15:56.019Z,24.45
2023-08-09T10:17:02.186Z,24.63
2023-08-09T10:17:58.009Z,24.78
2023-08-09T10:18:56.003Z,24.81
2023-08-09T10:19:56.019Z,25.01
2023-08-09T10:20:55.995Z,25.08
2023-08-09T10:21:55.977Z,25.03
2023-08-09T10:22:57.485Z,25.04
2023-08-09T10:23:56.993Z,25.29
2023-08-09T10:24:55.980Z,25.41
2023-08-09T10:25:55.978Z,25.29
2023-08-09T10:26:55.948Z,24.53
2023-08-09T10:27:55.931Z,23.68
2023-08-09T10:28:55.982Z,23.27
2023-08-09T10:29:55.937Z,23.46
2023-08-09T10:30:55.956Z,22.84
2023-08-09T10:31:56.115Z,22.59
2023-08-09T10:32:56.135Z,22.38
2023-08-09T10:33:55.931Z,21.77
2023-08-09T10:34:55.884Z,21.07
2023-08-09T10:35:55.899Z,20.95
2023-08-09T10:36:55.891Z,20.88
2023-08-09T10:37:55.891Z,20.85
2023-08-09T10:38:55.884Z,20.84
2023-08-09T10:39:55.848Z,20.82
2023-08-09T10:40:55.849Z,21.03
2023-08-09T10:41:55.879Z,21.35
2023-08-09T10:42:55.875Z,21.69
2023-08-09T10:43:55.825Z,21.96
2023-08-09T10:44:55.824Z,22.10
2023-08-09T10:45:55.839Z,22.28
2023-08-09T10:46:55.828Z,22.85
2023-08-09T10:47:55.829Z,23.28
2023-08-09T10:48:55.788Z,23.65
2023-08-09T10:49:55.815Z,23.95
2023-08-09T10:50:55.775Z,24.30
2023-08-09T10:51:55.764Z,24.68
2023-08-09T10:52:55.775Z,24.91
2023-08-09T10:53:55.745Z,25.23
2023-08-09T10:54:55.736Z,24.70
2023-08-09T10:55:55.737Z,24.65
2023-08-09T10:56:55.754Z,24.17
2023-08-09T10:57:55.803Z,24.03
2023-08-09T10:58:55.706Z,23.93
2023-08-09T10:59:55.783Z,23.87
2023-08-09T11:00:55.728Z,23.87
2023-08-09T11:01:55.712Z,24.14
2023-08-09T11:02:55.806Z,24.24
2023-08-09T11:03:55.751Z,24.42
2023-08-09T11:04:55.668Z,24.42
2023-08-09T11:05:55.657Z,24.53
2023-08-09T11:06:55.671Z,24.57
2023-08-09T11:07:55.636Z,24.66
2023-08-09T11:08:55.629Z,24.65
2023-08-09T11:09:55.639Z,24.85
2023-08-09T11:10:55.614Z,25.07
2023-08-09T11:11:55.634Z,25.32
2023-08-09T11:12:55.600Z,25.40
2023-08-09T11:13:56.682Z,25.26
2023-08-09T11:14:56.585Z,25.07
2023-08-09T11:15:55.582Z,24.93
2023-08-09T11:17:02.212Z,25.10
2023-08-09T11:17:57.623Z,25.35
2023-08-09T11:18:55.556Z,25.38
2023-08-09T11:19:55.544Z,24.99
2023-08-09T11:20:55.639Z,25.22
2023-08-09T11:21:56.467Z,25.07
2023-08-09T11:22:55.554Z,24.60
2023-08-09T11:23:55.526Z,24.85
2023-08-09T11:24:55.535Z,25.11
2023-08-09T11:25:55.557Z,25.18
2023-08-09T11:26:55.499Z,25.41
2023-08-09T11:27:55.499Z,25.70
2023-08-09T11:28:55.481Z,25.88
2023-08-09T11:29:55.474Z,25.66
2023-08-09T11:30:55.508Z,25.47
2023-08-09T11:31:55.464Z,24.89
2023-08-09T11:32:55.468Z,24.63
2023-08-09T11:33:55.433Z,24.88
2023-08-09T11:34:56.457Z,25.22
2023-08-09T11:35:55.450Z,25.47
2023-08-09T11:36:55.424Z,25.68
2023-08-09T11:37:55.413Z,25.84
2023-08-09T11:38:55.397Z,25.77
2023-08-09T11:39:55.448Z,25.88
2023-08-09T11:40:55.412Z,26.19
2023-08-09T11:41:55.446Z,26.52
2023-08-09T11:42:55.373Z,26.70
2023-08-09T11:43:55.370Z,26.93
2023-08-09T11:44:55.387Z,26.93
2023-08-09T11:45:55.992Z,26.88
2023-08-09T11:46:55.365Z,27.05
2023-08-09T11:47:55.362Z,27.26
2023-08-09T11:48:56.329Z,27.12
2023-08-09T11:49:55.354Z,26.96
2023-08-09T11:50:55.314Z,26.70
2023-08-09T11:51:55.321Z,26.00
2023-08-09T11:52:55.307Z,25.53
2023-08-09T11:53:55.320Z,24.88
2023-08-09T11:54:55.326Z,24.74
2023-08-09T11:55:55.284Z,24.70
2023-08-09T11:56:55.280Z,24.92
2023-08-09T11:57:55.266Z,25.04
2023-08-09T11:58:55.293Z,25.17
2023-08-09T12:00:03.584Z,25.35
2023-08-09T12:00:57.247Z,25.48
2023-08-09T12:01:55.269Z,25.68
2023-08-09T12:02:55.239Z,25.72
2023-08-09T12:03:55.347Z,25.69
2023-08-09T12:04:55.220Z,25.75
2023-08-09T12:05:56.852Z,25.87
2023-08-09T12:06:56.209Z,25.84
2023-08-09T12:07:55.219Z,25.84
2023-08-09T12:08:55.274Z,25.62
2023-08-09T12:09:55.183Z,25.22
2023-08-09T12:10:55.172Z,24.73
2023-08-09T12:11:55.171Z,24.47
2023-08-09T12:12:55.185Z,24.54
2023-08-09T12:13:55.148Z,24.40
2023-08-09T12:14:55.153Z,24.32
2023-08-09T12:15:55.163Z,24.43
2023-08-09T12:16:55.128Z,24.48
2023-08-09T12:17:55.187Z,24.43
2023-08-09T12:18:55.128Z,24.61
2023-08-09T12:19:55.120Z,24.74
2023-08-09T12:20:55.099Z,24.57
2023-08-09T12:21:55.145Z,24.80
2023-08-09T12:22:55.108Z,24.80
2023-08-09T12:23:55.080Z,24.89
2023-08-09T12:24:55.107Z,24.96
2023-08-09T12:25:55.058Z,24.99
2023-08-09T12:26:55.100Z,24.93
2023-08-09T12:27:55.066Z,24.93
2023-08-09T12:28:55.038Z,24.84
2023-08-09T12:29:55.042Z,24.78
2023-08-09T12:30:55.055Z,24.80
2023-08-09T12:31:55.063Z,24.81
2023-08-09T12:32:55.039Z,24.99
2023-08-09T12:33:54.994Z,25.04
2023-08-09T12:34:54.998Z,25.14
2023-08-09T12:35:54.978Z,25.07
2023-08-09T12:36:54.992Z,25.11
2023-08-09T12:37:54.964Z,25.35
2023-08-09T12:38:54.976Z,25.35
2023-08-09T12:39:54.952Z,24.89
2023-08-09T12:40:56.729Z,24.92
2023-08-09T12:41:54.958Z,25.08
2023-08-09T12:42:54.930Z,25.10
2023-08-09T12:43:54.915Z,24.86
2023-08-09T12:44:54.924Z,24.78
2023-08-09T12:45:54.975Z,24.96
2023-08-09T12:46:55.065Z,25.18
2023-08-09T12:47:54.940Z,25.07
2023-08-09T12:48:54.887Z,24.96
2023-08-09T12:49:54.873Z,24.35
2023-08-09T12:50:54.896Z,23.95
2023-08-09T12:51:54.887Z,23.28